createdAt,value
2019-05-21T00:01:03.268Z,3.83
2019-05-21T00:06:08.378Z,4.30
2019-05-21T00:11:13.418Z,4.67
2019-05-21T00:16:18.466Z,4.37
2019-05-21T00:21:23.503Z,4.73
2019-05-21T00:26:28.523Z,5.27
2019-05-21T00:32:10.031Z,5.17
2019-05-21T00:37:51.748Z,5.10
2019-05-21T00:42:58.032Z,5.17
2019-05-21T00:48:05.758Z,6.07
2019-05-21T00:53:09.824Z,4.13
2019-05-21T00:58:14.870Z,3.90
2019-05-21T01:03:19.928Z,4.40
2019-05-21T01:08:24.980Z,4.70
2019-05-21T01:13:30.028Z,4.37
2019-05-21T01:18:34.996Z,4.00
2019-05-21T01:23:40.051Z,4.70
2019-05-21T01:28:45.103Z,4.77
2019-05-21T01:33:50.136Z,4.93
2019-05-21T01:38:55.224Z,4.03
2019-05-21T01:44:00.235Z,5.00
2019-05-21T01:49:05.353Z,4.00
2019-05-21T01:54:10.404Z,4.17
2019-05-21T01:59:15.460Z,5.83
2019-05-21T02:04:20.511Z,4.40
2019-05-21T02:09:25.639Z,4.37
2019-05-21T02:14:30.604Z,5.30
2019-05-21T02:19:35.575Z,4.43
2019-05-21T02:24:40.547Z,3.63
2019-05-21T02:29:45.546Z,4.53
2019-05-21T02:34:50.520Z,5.00
2019-05-21T02:39:55.462Z,4.33
2019-05-21T02:45:00.571Z,4.10
2019-05-21T02:50:06.626Z,7.07
2019-05-21T02:55:11.728Z,5.27
2019-05-21T03:00:38.810Z,4.77
2019-05-21T03:05:44.264Z,4.50
2019-05-21T03:10:49.712Z,4.93
2019-05-21T03:15:54.755Z,5.87
2019-05-21T03:20:59.828Z,5.70
2019-05-21T03:26:04.926Z,5.07
2019-05-21T03:31:09.919Z,6.40
2019-05-21T03:36:31.603Z,4.93
2019-05-21T03:41:21.549Z,5.93
2019-05-21T03:46:26.836Z,8.10
2019-05-21T03:51:31.952Z,8.23
2019-05-21T03:56:37.070Z,6.87
2019-05-21T04:01:42.296Z,6.60
2019-05-21T04:06:51.767Z,9.03
2019-05-21T04:11:55.047Z,6.03
2019-05-21T04:17:02.199Z,9.03
2019-05-21T04:22:10.253Z,6.53
2019-05-21T04:27:15.488Z,6.77
2019-05-21T04:32:20.467Z,9.10
2019-05-21T04:37:25.452Z,19.20
2019-05-21T04:42:30.504Z,20.00
2019-05-21T04:47:35.658Z,24.13
2019-05-21T04:52:40.786Z,25.30
2019-05-21T04:57:45.843Z,28.00
2019-05-21T05:02:51.915Z,21.27
2019-05-21T05:07:56.871Z,27.50
2019-05-21T05:13:01.946Z,29.60
2019-05-21T05:18:07.004Z,25.83
2019-05-21T05:23:12.095Z,23.07
2019-05-21T05:28:17.086Z,31.10
2019-05-21T05:33:22.219Z,29.73
2019-05-21T05:38:27.256Z,26.97
2019-05-21T05:43:32.251Z,26.57
2019-05-21T05:48:39.029Z,30.93
2019-05-21T05:53:59.147Z,22.37
2019-05-21T05:59:04.456Z,28.40
2019-05-21T06:04:09.431Z,28.10
2019-05-21T06:09:14.416Z,18.17
2019-05-21T06:14:19.540Z,16.07
2019-05-21T06:19:24.661Z,12.47
2019-05-21T06:24:29.717Z,10.73
2019-05-21T06:29:38.944Z,11.80
2019-05-21T06:34:41.471Z,14.67
2019-05-21T06:39:46.557Z,11.40
2019-05-21T06:44:51.523Z,10.83
2019-05-21T06:49:56.646Z,7.70
2019-05-21T06:55:01.738Z,7.13
2019-05-21T07:00:08.688Z,6.20
2019-05-21T07:05:14.176Z,9.60
2019-05-21T07:10:19.348Z,9.00
2019-05-21T07:15:25.127Z,7.97
2019-05-21T07:20:30.283Z,7.87
2019-05-21T07:25:35.395Z,6.60
2019-05-21T07:30:40.417Z,8.03
2019-05-21T07:35:45.423Z,8.30
2019-05-21T07:40:50.549Z,6.43
2019-05-21T07:45:55.555Z,7.47
2019-05-21T07:51:00.760Z,5.93
2019-05-21T07:56:05.838Z,6.47
2019-05-21T08:01:11.026Z,4.50
2019-05-21T08:06:16.072Z,4.63
2019-05-21T08:11:21.172Z,4.83
2019-05-21T08:16:26.285Z,5.03
2019-05-21T08:21:31.365Z,4.83
2019-05-21T08:26:36.531Z,4.90
2019-05-21T08:31:42.685Z,5.47
2019-05-21T08:36:47.771Z,5.67
2019-05-21T08:41:57.147Z,5.73
2019-05-21T08:47:02.260Z,5.07
2019-05-21T08:52:07.459Z,4.90
2019-05-21T08:57:12.627Z,4.83
2019-05-21T09:02:20.756Z,5.27
2019-05-21T09:07:25.882Z,5.40
2019-05-21T09:12:30.991Z,4.60
2019-05-21T09:17:36.936Z,5.28
2019-05-21T09:22:42.263Z,5.03
2019-05-21T09:27:47.385Z,5.75
2019-05-21T09:32:52.411Z,4.53
2019-05-21T09:37:57.459Z,4.92
2019-05-21T09:43:02.500Z,4.35
2019-05-21T09:48:07.683Z,4.78
2019-05-21T09:53:12.808Z,4.03
2019-05-21T09:58:19.497Z,4.22
2019-05-21T10:03:26.192Z,4.45
2019-05-21T10:08:31.208Z,4.20
2019-05-21T10:13:36.251Z,4.62
2019-05-21T10:18:41.407Z,3.30
2019-05-21T10:23:46.583Z,3.25
2019-05-21T10:28:51.664Z,3.67
2019-05-21T10:33:56.676Z,3.15
2019-05-21T10:39:01.867Z,3.40
2019-05-21T10:44:08.910Z,4.08
2019-05-21T10:49:14.024Z,5.53
2019-05-21T10:54:19.176Z,4.15
2019-05-21T10:59:24.407Z,5.17
2019-05-21T11:04:46.041Z,4.25
2019-05-21T11:09:51.121Z,5.37
2019-05-21T11:14:56.215Z,6.22
2019-05-21T11:20:01.329Z,6.00
2019-05-21T11:25:07.513Z,6.83
2019-05-21T11:30:12.632Z,7.42
2019-05-21T11:35:17.931Z,9.20
2019-05-21T11:40:24.117Z,9.95
2019-05-21T11:45:32.698Z,7.35
2019-05-21T11:50:36.169Z,7.72
2019-05-21T11:55:41.258Z,7.20
2019-05-21T12:00:46.271Z,6.75
2019-05-21T12:05:51.407Z,5.22
2019-05-21T12:10:56.471Z,5.40
2019-05-21T12:16:01.662Z,4.58
2019-05-21T12:21:06.856Z,5.80
2019-05-21T12:26:12.042Z,6.72
2019-05-21T12:31:17.155Z,7.40
2019-05-21T12:36:22.274Z,7.45
2019-05-21T12:41:27.686Z,8.50
2019-05-21T12:46:32.740Z,7.95
2019-05-21T12:51:37.765Z,8.25
2019-05-21T12:56:42.909Z,11.12
2019-05-21T13:01:48.054Z,11.53
2019-05-21T13:06:53.232Z,14.20
2019-05-21T13:11:58.379Z,13.95
2019-05-21T13:17:04.486Z,13.20
2019-05-21T13:22:09.602Z,14.75
2019-05-21T13:27:14.589Z,12.82
2019-05-21T13:32:19.645Z,16.42
2019-05-21T13:37:24.857Z,18.12
2019-05-21T13:42:30.000Z,17.17
2019-05-21T13:47:35.091Z,13.22
2019-05-21T13:52:40.297Z,12.93
2019-05-21T13:57:45.367Z,9.43
2019-05-21T14:02:51.703Z,13.10
2019-05-21T14:07:56.915Z,9.85
2019-05-21T14:13:02.357Z,9.23
2019-05-21T14:18:07.556Z,7.97
2019-05-21T14:23:12.600Z,8.03
2019-05-21T14:28:17.727Z,8.10
2019-05-21T14:33:22.844Z,8.93
2019-05-21T14:38:27.971Z,9.60
2019-05-21T14:43:33.096Z,7.87
2019-05-21T14:48:38.045Z,8.25
2019-05-21T14:53:43.054Z,7.17
2019-05-21T14:58:48.130Z,7.25
2019-05-21T15:03:53.162Z,7.85
2019-05-21T15:08:58.176Z,7.65
2019-05-21T15:14:03.308Z,8.85
2019-05-21T15:19:08.499Z,8.38
2019-05-21T15:24:14.207Z,7.65
2019-05-21T15:29:19.270Z,8.03
2019-05-21T15:34:24.217Z,8.15
2019-05-21T15:39:29.260Z,8.70
2019-05-21T15:44:34.299Z,8.08
2019-05-21T15:49:39.302Z,7.70
2019-05-21T15:54:45.195Z,7.00
2019-05-21T15:59:50.255Z,6.33
2019-05-21T16:04:55.251Z,7.50
2019-05-21T16:10:01.307Z,6.58
2019-05-21T16:15:07.475Z,7.28
2019-05-21T16:20:13.067Z,6.47
2019-05-21T16:25:18.348Z,7.05
2019-05-21T16:30:23.575Z,7.30
2019-05-21T16:35:29.139Z,6.72
2019-05-21T16:40:34.307Z,6.55
2019-05-21T16:45:40.663Z,7.28
2019-05-21T16:50:45.640Z,7.15
2019-05-21T16:55:50.678Z,7.20
2019-05-21T17:00:55.732Z,8.08
2019-05-21T17:06:00.963Z,9.20
2019-05-21T17:11:06.162Z,8.53
2019-05-21T17:16:11.276Z,7.28
2019-05-21T17:21:16.393Z,7.92
2019-05-21T17:26:21.432Z,7.50
2019-05-21T17:31:26.521Z,7.55
2019-05-21T17:36:31.544Z,7.60
2019-05-21T17:41:36.739Z,6.40
2019-05-21T17:46:41.796Z,6.70
2019-05-21T17:51:47.050Z,7.15
2019-05-21T17:56:52.158Z,6.95
2019-05-21T18:01:57.510Z,7.40
2019-05-21T18:07:03.332Z,6.45
2019-05-21T18:12:10.740Z,6.30
2019-05-21T18:17:18.433Z,4.50
2019-05-21T18:22:24.723Z,4.30
2019-05-21T18:27:30.460Z,4.03
2019-05-21T18:32:35.545Z,4.55
2019-05-21T18:37:40.778Z,4.42
2019-05-21T18:42:45.968Z,4.03
2019-05-21T18:47:51.059Z,4.17
2019-05-21T18:52:56.215Z,5.20
2019-05-21T18:58:01.299Z,4.55
2019-05-21T19:03:06.546Z,3.75
2019-05-21T19:08:11.734Z,3.83
2019-05-21T19:13:16.995Z,4.25
2019-05-21T19:18:22.017Z,4.40
2019-05-21T19:23:27.040Z,4.50
2019-05-21T19:28:32.095Z,5.08
2019-05-21T19:33:37.180Z,4.73
2019-05-21T19:38:42.243Z,4.83
2019-05-21T19:43:47.351Z,6.47
2019-05-21T19:48:52.315Z,6.43
2019-05-21T19:53:57.510Z,5.80
2019-05-21T19:59:02.639Z,6.20
2019-05-21T20:04:09.815Z,7.43
2019-05-21T20:09:19.685Z,9.07
2019-05-21T20:14:24.872Z,6.30
2019-05-21T20:19:31.269Z,7.37
2019-05-21T20:24:36.403Z,7.23
2019-05-21T20:29:41.773Z,6.90
2019-05-21T20:34:46.885Z,6.43
2019-05-21T20:39:52.545Z,6.33
2019-05-21T20:44:57.721Z,7.17
2019-05-21T20:50:04.444Z,6.63
2019-05-21T20:55:10.273Z,7.23
2019-05-21T21:00:23.379Z,7.70
2019-05-21T21:05:28.706Z,5.70
2019-05-21T21:10:33.811Z,7.87
2019-05-21T21:15:39.257Z,8.50
2019-05-21T21:20:44.429Z,8.40
2019-05-21T21:25:49.531Z,6.20
2019-05-21T21:30:56.163Z,7.60
2019-05-21T21:36:01.258Z,7.27
2019-05-21T21:41:07.516Z,8.40
2019-05-21T21:46:12.600Z,6.43
2019-05-21T21:51:18.585Z,7.40
2019-05-21T21:56:23.629Z,7.30
2019-05-21T22:01:36.118Z,7.67
2019-05-21T22:06:42.855Z,9.90
2019-05-21T22:11:48.148Z,8.33
2019-05-21T22:16:53.773Z,9.43
2019-05-21T22:21:58.824Z,12.20
2019-05-21T22:27:04.001Z,10.80
2019-05-21T22:32:09.156Z,12.37
2019-05-21T22:37:16.527Z,10.57
2019-05-21T22:42:22.684Z,11.90
2019-05-21T22:47:28.079Z,8.07
2019-05-21T22:52:33.135Z,7.30
2019-05-21T22:57:38.153Z,8.47
2019-05-21T23:02:43.543Z,8.93
2019-05-21T23:07:48.459Z,6.37
2019-05-21T23:12:53.675Z,7.73
2019-05-21T23:17:58.866Z,6.87
2019-05-21T23:23:06.168Z,8.43
2019-05-21T23:28:11.255Z,8.37
2019-05-21T23:33:17.851Z,10.03
2019-05-21T23:38:23.578Z,11.50
2019-05-21T23:43:29.512Z,12.53
2019-05-21T23:48:35.513Z,13.53
2019-05-21T23:53:40.713Z,14.40
2019-05-21T23:58:48.031Z,13.50
